createdAt,value
2023-09-08T00:02:13.318Z,17.77
2023-09-08T00:04:39.927Z,17.92
2023-09-08T00:07:06.431Z,16.13
2023-09-08T00:09:32.943Z,15.77
2023-09-08T00:11:59.946Z,18.65
2023-09-08T00:14:26.480Z,16.57
2023-09-08T00:16:55.767Z,19.23
2023-09-08T00:19:24.268Z,14.75
2023-09-08T00:21:51.132Z,15.75
2023-09-08T00:24:18.869Z,16.65
2023-09-08T00:26:45.382Z,18.70
2023-09-08T00:29:11.950Z,15.35
2023-09-08T00:31:38.421Z,16.50
2023-09-08T00:34:05.035Z,17.60
2023-09-08T00:36:31.635Z,17.80
2023-09-08T00:38:58.099Z,20.00
2023-09-08T00:41:24.832Z,19.13
2023-09-08T00:43:51.506Z,15.30
2023-09-08T00:46:19.020Z,15.40
2023-09-08T00:48:45.637Z,14.05
2023-09-08T00:51:12.190Z,19.03
2023-09-08T00:53:38.777Z,15.60
2023-09-08T00:56:05.505Z,13.57
2023-09-08T00:58:32.458Z,16.25
2023-09-08T01:00:59.243Z,14.32
2023-09-08T01:03:26.456Z,18.27
2023-09-08T01:05:53.757Z,15.40
2023-09-08T01:08:20.967Z,16.42
2023-09-08T01:10:47.600Z,14.38
2023-09-08T01:13:14.079Z,15.07
2023-09-08T01:15:40.653Z,16.83
2023-09-08T01:18:07.370Z,15.52
2023-09-08T01:20:57.159Z,20.00
2023-09-08T01:23:45.031Z,14.35
2023-09-08T01:26:19.112Z,17.23
2023-09-08T01:28:50.105Z,14.67
2023-09-08T01:31:17.815Z,15.80
2023-09-08T01:33:46.509Z,17.30
2023-09-08T01:36:15.219Z,15.00
2023-09-08T01:38:41.756Z,16.88
2023-09-08T01:41:08.190Z,15.03
2023-09-08T01:43:34.715Z,16.23
2023-09-08T01:46:01.226Z,15.82
2023-09-08T01:48:27.787Z,15.48
2023-09-08T01:50:54.234Z,15.73
2023-09-08T01:53:20.672Z,15.03
2023-09-08T01:55:47.082Z,15.15
2023-09-08T01:58:13.489Z,16.63
2023-09-08T02:00:39.978Z,15.45
2023-09-08T02:03:06.442Z,14.10
2023-09-08T02:05:33.069Z,16.37
2023-09-08T02:07:59.638Z,14.30
2023-09-08T02:10:26.114Z,14.32
2023-09-08T02:12:53.377Z,14.10
2023-09-08T02:15:19.966Z,14.65
2023-09-08T02:17:46.511Z,15.87
2023-09-08T02:20:13.081Z,19.08
2023-09-08T02:22:39.519Z,17.63
2023-09-08T02:25:06.507Z,17.10
2023-09-08T02:27:33.178Z,14.25
2023-09-08T02:29:59.609Z,13.53
2023-09-08T02:32:26.040Z,14.77
2023-09-08T02:34:53.869Z,14.40
2023-09-08T02:37:20.412Z,18.17
2023-09-08T02:39:46.929Z,13.48
2023-09-08T02:42:13.398Z,14.90
2023-09-08T02:44:39.858Z,14.50
2023-09-08T02:47:07.564Z,13.63
2023-09-08T02:49:34.074Z,14.23
2023-09-08T02:52:00.581Z,15.90
2023-09-08T02:54:27.061Z,13.93
2023-09-08T02:56:53.524Z,18.27
2023-09-08T02:59:20.075Z,14.52
2023-09-08T03:01:46.829Z,13.98
2023-09-08T03:04:13.366Z,14.48
2023-09-08T03:06:39.783Z,13.10
2023-09-08T03:09:06.247Z,13.02
2023-09-08T03:11:32.722Z,14.15
2023-09-08T03:13:59.311Z,15.48
2023-09-08T03:16:25.844Z,14.15
2023-09-08T03:18:52.407Z,14.63
2023-09-08T03:21:18.820Z,16.98
2023-09-08T03:23:46.677Z,14.75
2023-09-08T03:26:13.199Z,16.20
2023-09-08T03:28:40.132Z,14.85
2023-09-08T03:31:07.231Z,16.70
2023-09-08T03:33:34.105Z,14.25
2023-09-08T03:36:01.067Z,15.25
2023-09-08T03:38:27.594Z,15.30
2023-09-08T03:40:54.152Z,15.25
2023-09-08T03:43:20.653Z,17.40
2023-09-08T03:45:48.327Z,13.63
2023-09-08T03:48:15.126Z,14.00
2023-09-08T03:50:41.696Z,15.05
2023-09-08T03:53:08.203Z,15.30
2023-09-08T03:55:34.648Z,15.33
2023-09-08T03:58:01.090Z,14.25
2023-09-08T04:00:27.574Z,15.05
2023-09-08T04:02:54.110Z,14.68
2023-09-08T04:05:20.880Z,12.95
2023-09-08T04:07:47.926Z,14.53
2023-09-08T04:10:14.701Z,13.32
2023-09-08T04:12:42.094Z,13.50
2023-09-08T04:15:09.721Z,18.23
2023-09-08T04:17:37.240Z,17.88
2023-09-08T04:20:08.019Z,14.27
2023-09-08T04:22:34.950Z,15.98
2023-09-08T04:25:01.943Z,14.77
2023-09-08T04:27:28.514Z,16.77
2023-09-08T04:29:55.055Z,15.70
2023-09-08T04:32:21.553Z,16.20
2023-09-08T04:34:48.132Z,16.45
2023-09-08T04:37:15.269Z,14.65
2023-09-08T04:39:41.766Z,16.45
2023-09-08T04:42:08.316Z,15.60
2023-09-08T04:44:34.969Z,18.03
2023-09-08T04:47:01.931Z,17.60
2023-09-08T04:49:30.034Z,20.17
2023-09-08T04:51:56.686Z,16.55
2023-09-08T04:54:25.402Z,17.55
2023-09-08T04:56:51.990Z,20.37
2023-09-08T04:59:18.542Z,18.92
2023-09-08T05:01:45.013Z,18.77
2023-09-08T05:04:12.357Z,20.55
2023-09-08T05:06:38.974Z,18.88
2023-09-08T05:09:05.452Z,17.80
2023-09-08T05:11:32.087Z,17.95
2023-09-08T05:13:59.078Z,18.73
2023-09-08T05:16:40.705Z,17.52
2023-09-08T05:19:07.344Z,19.17
2023-09-08T05:21:35.238Z,20.67
2023-09-08T05:24:01.807Z,18.90
2023-09-08T05:26:28.313Z,17.33
2023-09-08T05:28:54.865Z,16.60
2023-09-08T05:31:21.787Z,17.95
2023-09-08T05:33:48.437Z,15.13
2023-09-08T05:36:16.112Z,18.27
2023-09-08T05:38:42.786Z,15.50
2023-09-08T05:41:09.287Z,17.85
2023-09-08T05:43:36.148Z,17.77
2023-09-08T05:46:02.986Z,21.17
2023-09-08T05:48:29.505Z,19.17
2023-09-08T05:50:56.054Z,21.58
2023-09-08T05:53:22.800Z,16.35
2023-09-08T05:55:49.350Z,16.38
2023-09-08T05:58:15.956Z,15.97
2023-09-08T06:00:42.626Z,17.27
2023-09-08T06:03:09.466Z,14.38
2023-09-08T06:05:36.204Z,13.77
2023-09-08T06:08:07.842Z,16.85
2023-09-08T06:10:34.858Z,13.73
2023-09-08T06:13:02.644Z,15.65
2023-09-08T06:15:29.206Z,17.45
2023-09-08T06:17:55.818Z,14.52
2023-09-08T06:20:22.619Z,14.93
2023-09-08T06:22:49.685Z,13.33
2023-09-08T06:25:16.497Z,16.15
2023-09-08T06:27:43.100Z,14.88
2023-09-08T06:30:10.080Z,16.02
2023-09-08T06:32:36.572Z,13.85
2023-09-08T06:35:03.076Z,11.77
2023-09-08T06:37:30.136Z,14.30
2023-09-08T06:39:56.602Z,12.77
2023-09-08T06:42:23.083Z,15.65
2023-09-08T06:44:49.538Z,15.00
2023-09-08T06:47:16.889Z,16.67
2023-09-08T06:49:43.418Z,15.80
2023-09-08T06:52:09.922Z,15.18
2023-09-08T06:54:36.364Z,14.85
2023-09-08T06:57:02.974Z,15.35
2023-09-08T06:59:29.414Z,13.20
2023-09-08T07:01:56.077Z,14.82
2023-09-08T07:04:22.884Z,13.77
2023-09-08T07:06:51.100Z,15.20
2023-09-08T07:09:18.201Z,14.88
2023-09-08T07:11:44.627Z,15.50
2023-09-08T07:14:11.071Z,12.75
2023-09-08T07:16:37.651Z,15.52
2023-09-08T07:19:05.042Z,17.27
2023-09-08T07:21:31.693Z,12.05
2023-09-08T07:23:59.324Z,14.43
2023-09-08T07:26:25.798Z,13.02
2023-09-08T07:28:52.284Z,14.25
2023-09-08T07:31:19.061Z,12.73
2023-09-08T07:33:45.586Z,14.75
2023-09-08T07:36:12.780Z,13.13
2023-09-08T07:38:39.251Z,13.52
2023-09-08T07:41:06.723Z,13.55
2023-09-08T07:43:33.428Z,11.45
2023-09-08T07:46:00.017Z,12.90
2023-09-08T07:48:26.622Z,12.90
2023-09-08T07:50:53.336Z,14.07
2023-09-08T07:53:19.830Z,13.43
2023-09-08T07:55:46.278Z,14.73
2023-09-08T07:58:12.712Z,15.55
2023-09-08T08:00:39.158Z,14.00
2023-09-08T08:03:07.203Z,12.27
2023-09-08T08:05:33.833Z,14.95
2023-09-08T08:08:00.441Z,15.50
2023-09-08T08:10:27.012Z,10.30
2023-09-08T08:12:53.794Z,13.33
2023-09-08T08:15:24.472Z,12.60
2023-09-08T08:17:51.046Z,13.13
2023-09-08T08:20:20.646Z,12.85
2023-09-08T08:22:47.691Z,12.73
2023-09-08T08:25:14.330Z,11.53
2023-09-08T08:27:41.543Z,11.93
2023-09-08T08:30:08.520Z,14.23
2023-09-08T08:32:35.084Z,12.35
2023-09-08T08:35:01.548Z,10.48
2023-09-08T08:37:28.204Z,13.67
2023-09-08T08:39:54.650Z,10.73
2023-09-08T08:42:23.408Z,11.85
2023-09-08T08:44:51.154Z,11.05
2023-09-08T08:47:18.340Z,12.13
2023-09-08T08:49:47.785Z,12.10
2023-09-08T08:52:16.242Z,11.88
2023-09-08T08:54:43.939Z,11.25
2023-09-08T08:57:12.237Z,12.43
2023-09-08T08:59:38.827Z,10.32
2023-09-08T09:02:06.203Z,11.93
2023-09-08T09:04:33.418Z,11.05
2023-09-08T09:07:00.721Z,11.85
2023-09-08T09:09:27.301Z,9.77
2023-09-08T09:11:53.858Z,10.35
2023-09-08T09:14:20.665Z,11.70
2023-09-08T09:16:48.884Z,12.07
2023-09-08T09:19:26.471Z,10.60
2023-09-08T09:21:55.619Z,11.25
2023-09-08T09:24:34.045Z,10.98
2023-09-08T09:27:06.752Z,10.00
2023-09-08T09:29:35.369Z,10.63
2023-09-08T09:32:09.614Z,9.60
2023-09-08T09:34:36.218Z,10.45
2023-09-08T09:37:06.204Z,10.48
2023-09-08T09:39:33.156Z,11.40
2023-09-08T09:41:59.639Z,10.27
2023-09-08T09:44:26.763Z,9.43
2023-09-08T09:46:54.204Z,11.75
2023-09-08T09:49:21.416Z,12.20
2023-09-08T09:51:50.373Z,10.23
2023-09-08T09:54:17.561Z,9.95
2023-09-08T09:56:46.918Z,9.45
2023-09-08T09:59:14.678Z,11.50
2023-09-08T10:01:43.406Z,11.27
2023-09-08T10:04:10.697Z,11.50
2023-09-08T10:06:39.160Z,11.18
2023-09-08T10:09:14.332Z,11.20
2023-09-08T10:11:50.637Z,11.15
2023-09-08T10:14:19.231Z,9.88
2023-09-08T10:16:50.613Z,8.90
2023-09-08T10:19:18.146Z,9.40
2023-09-08T10:21:48.262Z,8.77
2023-09-08T10:24:35.046Z,10.68
2023-09-08T10:27:12.246Z,9.02
2023-09-08T10:29:39.779Z,11.20
2023-09-08T10:32:09.008Z,10.25
2023-09-08T10:34:37.195Z,8.98
2023-09-08T10:37:06.565Z,8.70
2023-09-08T10:39:39.957Z,8.88
2023-09-08T10:42:19.594Z,8.30
2023-09-08T10:44:48.865Z,8.13
2023-09-08T10:47:19.100Z,7.47
2023-09-08T10:49:46.569Z,9.07
2023-09-08T10:52:13.977Z,8.45
2023-09-08T10:54:44.524Z,8.03
2023-09-08T10:57:15.808Z,7.70
2023-09-08T11:00:00.867Z,11.15
2023-09-08T11:02:49.104Z,9.00
2023-09-08T11:05:16.875Z,8.02
2023-09-08T11:07:47.152Z,11.97
2023-09-08T11:10:14.252Z,8.20
2023-09-08T11:12:41.029Z,9.00
2023-09-08T11:15:09.732Z,9.80
2023-09-08T11:17:41.001Z,9.38
2023-09-08T11:20:10.086Z,7.57
2023-09-08T11:22:37.699Z,8.25
2023-09-08T11:25:07.902Z,7.32
2023-09-08T11:27:34.646Z,8.23
2023-09-08T11:30:01.442Z,8.50
2023-09-08T11:32:35.214Z,9.07
2023-09-08T11:35:08.026Z,9.25
2023-09-08T11:37:38.543Z,7.78
2023-09-08T11:40:10.465Z,9.43
2023-09-08T11:42:37.053Z,9.13
2023-09-08T11:45:05.200Z,8.83
2023-09-08T11:47:32.962Z,9.40
2023-09-08T11:49:59.798Z,8.13
2023-09-08T11:52:26.319Z,8.20
2023-09-08T11:55:06.493Z,8.50
2023-09-08T11:57:34.650Z,9.37
2023-09-08T12:00:02.871Z,10.13
2023-09-08T12:02:29.516Z,13.77
2023-09-08T12:04:56.196Z,9.35
2023-09-08T12:07:22.626Z,9.38
2023-09-08T12:09:49.208Z,9.40
2023-09-08T12:12:15.665Z,11.43
2023-09-08T12:14:45.266Z,9.45
2023-09-08T12:17:18.005Z,10.80
2023-09-08T12:19:44.763Z,12.32
2023-09-08T12:22:18.743Z,10.13
2023-09-08T12:24:52.342Z,10.35
2023-09-08T12:27:20.584Z,10.80
2023-09-08T12:29:53.464Z,9.25
2023-09-08T12:32:20.026Z,10.57
2023-09-08T12:34:46.758Z,10.47
2023-09-08T12:37:13.238Z,7.82
2023-09-08T12:39:40.385Z,9.13
2023-09-08T12:42:06.850Z,7.82
2023-09-08T12:44:33.897Z,10.52
2023-09-08T12:47:00.400Z,8.83
2023-09-08T12:49:26.904Z,8.93
2023-09-08T12:51:53.349Z,11.10
2023-09-08T12:54:19.768Z,8.23
2023-09-08T12:56:46.219Z,10.07
2023-09-08T12:59:12.679Z,8.60
2023-09-08T13:01:39.154Z,7.55
2023-09-08T13:04:05.983Z,10.38
2023-09-08T13:06:33.909Z,10.43
2023-09-08T13:09:00.359Z,8.40
2023-09-08T13:11:26.919Z,9.60
2023-09-08T13:13:55.103Z,12.18
2023-09-08T13:16:21.710Z,8.73
2023-09-08T13:18:48.580Z,9.55
2023-09-08T13:21:15.075Z,10.02
2023-09-08T13:23:41.500Z,10.10
2023-09-08T13:26:07.954Z,8.85
2023-09-08T13:28:34.619Z,10.52
2023-09-08T13:31:01.386Z,10.77
2023-09-08T13:33:27.892Z,7.95
2023-09-08T13:35:54.319Z,10.77
2023-09-08T13:38:20.844Z,12.00
2023-09-08T13:40:47.286Z,10.77
2023-09-08T13:43:13.706Z,9.93
2023-09-08T13:45:40.109Z,8.75
2023-09-08T13:48:07.829Z,10.10
2023-09-08T13:50:35.243Z,10.85
2023-09-08T13:53:04.646Z,10.38
2023-09-08T13:55:37.676Z,10.00
2023-09-08T13:58:08.867Z,9.10
2023-09-08T14:00:38.582Z,9.03
2023-09-08T14:03:06.780Z,9.65
2023-09-08T14:05:37.005Z,7.85
2023-09-08T14:08:09.393Z,8.45
2023-09-08T14:10:52.165Z,8.80
2023-09-08T14:13:24.690Z,7.60
2023-09-08T14:15:51.349Z,8.98
2023-09-08T14:18:17.770Z,11.85
2023-09-08T14:20:44.440Z,15.57
2023-09-08T14:23:10.969Z,8.88
2023-09-08T14:25:37.413Z,13.43
2023-09-08T14:28:05.567Z,8.45
2023-09-08T14:30:33.506Z,8.00
2023-09-08T14:33:00.008Z,7.72
2023-09-08T14:35:26.919Z,8.95
2023-09-08T14:37:53.391Z,7.30
2023-09-08T14:40:19.845Z,9.30
2023-09-08T14:42:46.269Z,8.15
2023-09-08T14:45:13.404Z,9.43
2023-09-08T14:47:39.983Z,8.95
2023-09-08T14:50:07.168Z,9.43
2023-09-08T14:52:33.599Z,9.10
2023-09-08T14:55:00.932Z,11.32
2023-09-08T14:57:27.408Z,8.23
2023-09-08T14:59:56.508Z,10.82
2023-09-08T15:02:23.965Z,10.13
2023-09-08T15:04:50.505Z,7.88
2023-09-08T15:07:17.014Z,8.75
2023-09-08T15:09:43.488Z,9.95
2023-09-08T15:12:10.334Z,8.70
2023-09-08T15:14:36.771Z,14.60
2023-09-08T15:17:04.099Z,10.93
2023-09-08T15:19:30.566Z,8.60
2023-09-08T15:21:56.980Z,8.65
2023-09-08T15:24:23.465Z,11.75
2023-09-08T15:26:51.163Z,10.57
2023-09-08T15:29:18.477Z,9.88
2023-09-08T15:31:45.044Z,10.93
2023-09-08T15:34:13.129Z,10.73
2023-09-08T15:36:39.567Z,11.32
2023-09-08T15:39:06.094Z,10.10
2023-09-08T15:41:32.763Z,10.35
2023-09-08T15:43:59.257Z,10.13
2023-09-08T15:46:26.887Z,11.90
2023-09-08T15:48:53.388Z,12.63
2023-09-08T15:51:19.853Z,13.60
2023-09-08T15:53:47.228Z,11.98
2023-09-08T15:56:13.718Z,11.05
2023-09-08T15:58:40.408Z,12.18
2023-09-08T16:01:07.466Z,13.35
2023-09-08T16:03:34.856Z,10.90
2023-09-08T16:06:01.581Z,15.85
2023-09-08T16:08:28.044Z,16.15
2023-09-08T16:10:54.599Z,27.23
2023-09-08T16:13:21.368Z,27.23
2023-09-08T16:15:47.969Z,22.67
2023-09-08T16:18:14.474Z,28.63
2023-09-08T16:20:41.016Z,15.65
2023-09-08T16:23:08.463Z,13.02
2023-09-08T16:25:35.083Z,10.90
2023-09-08T16:28:01.661Z,11.57
2023-09-08T16:30:29.969Z,9.63
2023-09-08T16:32:56.547Z,8.10
2023-09-08T16:35:23.056Z,10.38
2023-09-08T16:37:49.644Z,10.93
2023-09-08T16:40:16.467Z,11.90
2023-09-08T16:42:42.893Z,10.63
2023-09-08T16:45:09.808Z,10.48
2023-09-08T16:47:36.346Z,18.13
2023-09-08T16:50:04.461Z,11.90
2023-09-08T16:52:30.892Z,18.67
2023-09-08T16:54:57.418Z,12.57
2023-09-08T16:57:24.024Z,11.80
2023-09-08T16:59:51.435Z,12.80
2023-09-08T17:02:18.010Z,15.85
2023-09-08T17:04:46.780Z,16.13
2023-09-08T17:07:13.661Z,26.13
2023-09-08T17:09:40.179Z,27.33
2023-09-08T17:12:08.258Z,14.93
2023-09-08T17:14:35.753Z,13.90
2023-09-08T17:17:02.461Z,16.37
2023-09-08T17:19:28.996Z,10.38
2023-09-08T17:21:55.548Z,10.80
2023-09-08T17:24:21.997Z,9.88
2023-09-08T17:26:49.551Z,14.77
2023-09-08T17:29:15.985Z,10.70
2023-09-08T17:31:42.424Z,13.05
2023-09-08T17:34:09.061Z,10.93
2023-09-08T17:36:35.588Z,11.68
2023-09-08T17:39:02.015Z,12.07
2023-09-08T17:41:28.454Z,14.30
2023-09-08T17:43:54.877Z,12.00
2023-09-08T17:46:21.706Z,10.98
2023-09-08T17:48:48.354Z,12.40
2023-09-08T17:51:14.813Z,10.38
2023-09-08T17:53:41.245Z,17.13
2023-09-08T17:56:07.707Z,15.43
2023-09-08T17:58:34.143Z,12.73
2023-09-08T18:01:00.654Z,18.13
2023-09-08T18:03:27.278Z,17.40
2023-09-08T18:05:53.802Z,18.23
2023-09-08T18:08:20.263Z,22.63
2023-09-08T18:10:47.682Z,16.23
2023-09-08T18:13:14.309Z,15.80
2023-09-08T18:15:40.842Z,17.70
2023-09-08T18:18:07.427Z,14.60
2023-09-08T18:20:36.749Z,15.40
2023-09-08T18:23:03.633Z,13.55
2023-09-08T18:25:30.103Z,17.33
2023-09-08T18:27:56.627Z,15.40
2023-09-08T18:30:23.135Z,17.70
2023-09-08T18:32:49.638Z,15.10
2023-09-08T18:35:16.291Z,14.73
2023-09-08T18:37:42.958Z,15.98
2023-09-08T18:40:11.514Z,16.33
2023-09-08T18:42:38.592Z,15.97
2023-09-08T18:45:05.611Z,17.73
2023-09-08T18:47:32.162Z,18.05
2023-09-08T18:49:58.611Z,17.42
2023-09-08T18:52:25.101Z,18.55
2023-09-08T18:54:51.595Z,19.20
2023-09-08T18:57:18.022Z,22.55
2023-09-08T18:59:44.464Z,20.05
2023-09-08T19:02:10.932Z,22.38
2023-09-08T19:04:37.595Z,22.17
2023-09-08T19:07:04.220Z,22.87
2023-09-08T19:09:30.659Z,24.70
2023-09-08T19:11:57.111Z,28.67
2023-09-08T19:14:27.939Z,22.25
2023-09-08T19:16:55.305Z,23.40
2023-09-08T19:19:22.013Z,20.63
2023-09-08T19:21:48.654Z,19.42
2023-09-08T19:24:16.869Z,22.25
2023-09-08T19:26:43.368Z,18.38
2023-09-08T19:29:09.886Z,27.40
2023-09-08T19:31:36.522Z,21.03
2023-09-08T19:34:03.132Z,27.38
2023-09-08T19:36:29.601Z,27.33
2023-09-08T19:38:56.059Z,26.50
2023-09-08T19:41:25.082Z,29.35
2023-09-08T19:43:51.943Z,42.33
2023-09-08T19:46:18.538Z,30.08
2023-09-08T19:48:45.164Z,26.30
2023-09-08T19:51:11.979Z,25.17
2023-09-08T19:53:38.782Z,34.28
2023-09-08T19:56:05.427Z,33.53
2023-09-08T19:58:31.945Z,39.20
2023-09-08T20:01:10.756Z,30.27
2023-09-08T20:03:37.638Z,24.98
2023-09-08T20:06:05.059Z,26.77
2023-09-08T20:08:32.557Z,22.60
2023-09-08T20:10:59.176Z,27.70
2023-09-08T20:13:25.663Z,23.30
2023-09-08T20:16:18.636Z,21.45
2023-09-08T20:18:45.172Z,24.80
2023-09-08T20:21:11.829Z,24.90
2023-09-08T20:23:38.845Z,22.00
2023-09-08T20:26:05.555Z,27.98
2023-09-08T20:28:33.046Z,24.65
2023-09-08T20:31:13.751Z,25.67
2023-09-08T20:33:42.679Z,25.23
2023-09-08T20:36:09.762Z,26.65
2023-09-08T20:38:36.433Z,24.92
2023-09-08T20:41:02.938Z,26.90
2023-09-08T20:43:29.545Z,29.48
2023-09-08T20:45:57.695Z,32.33
2023-09-08T20:48:24.207Z,27.83
2023-09-08T20:50:59.769Z,26.65
2023-09-08T20:53:26.292Z,26.58
2023-09-08T20:55:52.777Z,25.63
2023-09-08T20:58:19.234Z,25.13
2023-09-08T21:00:45.749Z,23.55
2023-09-08T21:03:12.287Z,25.70
2023-09-08T21:05:38.846Z,27.23
2023-09-08T21:08:05.669Z,28.08
2023-09-08T21:10:32.904Z,45.30
2023-09-08T21:12:59.341Z,39.85
2023-09-08T21:15:25.859Z,27.95
2023-09-08T21:17:52.438Z,25.30
2023-09-08T21:20:18.873Z,28.58
2023-09-08T21:22:45.340Z,37.13
2023-09-08T21:25:11.771Z,29.02
2023-09-08T21:27:38.196Z,25.90
2023-09-08T21:30:05.177Z,21.00
2023-09-08T21:32:31.771Z,20.77
2023-09-08T21:34:58.252Z,20.93
2023-09-08T21:37:24.681Z,19.17
2023-09-08T21:39:51.110Z,21.67
2023-09-08T21:42:17.608Z,22.40
2023-09-08T21:44:44.110Z,22.88
2023-09-08T21:47:10.556Z,22.70
2023-09-08T21:49:37.056Z,22.30
2023-09-08T21:52:03.927Z,22.52
2023-09-08T21:54:30.374Z,24.17
2023-09-08T21:56:56.809Z,24.58
2023-09-08T21:59:23.313Z,25.60
2023-09-08T22:01:49.799Z,25.35
2023-09-08T22:04:16.808Z,30.73
2023-09-08T22:06:43.831Z,37.88
2023-09-08T22:09:10.285Z,38.55
2023-09-08T22:11:36.909Z,43.67
2023-09-08T22:14:03.676Z,40.00
2023-09-08T22:16:30.188Z,38.83
2023-09-08T22:18:57.001Z,36.33
2023-09-08T22:21:23.554Z,35.85
2023-09-08T22:23:51.737Z,35.33
2023-09-08T22:26:19.808Z,37.13
2023-09-08T22:28:50.304Z,37.83
2023-09-08T22:31:17.322Z,38.28
2023-09-08T22:33:44.142Z,40.40
2023-09-08T22:36:10.846Z,39.90
2023-09-08T22:38:37.547Z,42.78
2023-09-08T22:41:03.981Z,41.90
2023-09-08T22:43:30.432Z,41.88
2023-09-08T22:45:56.920Z,38.17
2023-09-08T22:48:23.909Z,37.07
2023-09-08T22:50:50.995Z,38.58
2023-09-08T22:53:18.737Z,44.38
2023-09-08T22:55:45.648Z,43.22
2023-09-08T22:58:14.788Z,43.05
2023-09-08T23:00:41.868Z,43.20
2023-09-08T23:03:09.640Z,47.58
2023-09-08T23:08:03.059Z,42.13
2023-09-08T23:10:29.632Z,42.60
2023-09-08T23:12:56.132Z,44.50
2023-09-08T23:15:23.076Z,46.97
2023-09-08T23:17:49.611Z,44.95
2023-09-08T23:20:16.663Z,46.55
2023-09-08T23:22:44.553Z,44.78
2023-09-08T23:25:11.487Z,44.63
2023-09-08T23:27:38.517Z,44.38
2023-09-08T23:30:06.166Z,46.55
2023-09-08T23:32:32.879Z,42.00
2023-09-08T23:35:00.696Z,47.67
2023-09-08T23:37:27.394Z,40.67
2023-09-08T23:39:53.863Z,51.10
2023-09-08T23:42:20.439Z,46.88
2023-09-08T23:44:46.908Z,53.58
2023-09-08T23:47:13.829Z,52.92
2023-09-08T23:49:40.441Z,54.37
2023-09-08T23:52:06.880Z,51.75
2023-09-08T23:54:33.299Z,56.97
2023-09-08T23:57:00.706Z,55.08
2023-09-08T23:59:27.355Z,51.05
